Terminal Aerodrome Forecast
Issued by NWS Kansas City/Pleasant Hill, MO

Home | Current Version | Previous Version | Text Only | Print | Product List | Glossary On
Versions: 1 2 3 4 5 6 7 8 9 10 11 12 13
204
FTUS43 KEAX 301120
TAFMCI
TAF
KMCI 301120Z 3012/3112 02004KT P6SM FEW150 SCT250
     FM311100 12008KT P6SM VCTS BKN050CB=

USA.gov is the U.S. government's official web portal to all federal, state and local government web resources and services.